Guenther Schulte — VRGK8 — position and weather

sailwx.info

Track history (hours):
 
Tides and Currents Weather Stations Pressure Air Temp Water Temp Dewpoint Dewpoint Depression Visibility Wind Speed Wind Dir Waves Ship Positions

Guenther Schulte

Last reported at 2016-Sep-29 00:32 UTC. Time now 2016-Sep-29 05:03 UTC.
Position N 37°48' W 122°19'.

Length 231 m; draft 10.1 m.

Type: Ship (hazmat cat C). MMSI: 477728800.

Date/timePositionNaut miles runAvg speedWind from/ knotsBaromVisibWave heightAir tempDewpointWater temp
2016-Sep-29 00:32N 37°48' W 122°19'8 2.6
2016-Sep-28 21:33N 37°49' W 122°29'2210.8
2016-Sep-28 19:33N 37°37' W 122°52'21 6.9
2016-Sep-28 16:33N 37°25' W 123°13'3 2.9
2016-Sep-28 15:33N 37°24' W 123°17'60 8.6
2016-Sep-28 08:33N 36°43' W 124°11'45 8.9
2016-Sep-28 03:33N 36°11' W 124°51'9 8.5
2016-Sep-28 02:33N 36°06' W 124°59'9 8.5
2016-Sep-28 01:33N 35°60' W 125°07'18 9.0
2016-Sep-27 23:33N 35°47' W 125°22'36 9.0
2016-Sep-27 19:33N 35°22' W 125°54'  
Track history (hours):
 
Tides and Currents Weather Stations Pressure Air Temp Water Temp Dewpoint Dewpoint Depression Visibility Wind Speed Wind Dir Waves Ship Positions

Guenther Schulte

Last reported at 2016-Sep-29 00:32 UTC. Time now 2016-Sep-29 05:03 UTC.
Position N 37°48' W 122°19'.

Length 231 m; draft 10.1 m.

Type: Ship (hazmat cat C). MMSI: 477728800.

Date/timePositionNaut miles runAvg speedWind from/ knotsBaromVisibWave heightAir tempDewpointWater temp
2016-Sep-29 00:32N 37°48' W 122°19'8 2.6
2016-Sep-28 21:33N 37°49' W 122°29'2210.8
2016-Sep-28 19:33N 37°37' W 122°52'21 6.9
2016-Sep-28 16:33N 37°25' W 123°13'3 2.9
2016-Sep-28 15:33N 37°24' W 123°17'60 8.6
2016-Sep-28 08:33N 36°43' W 124°11'45 8.9
2016-Sep-28 03:33N 36°11' W 124°51'9 8.5
2016-Sep-28 02:33N 36°06' W 124°59'9 8.5
2016-Sep-28 01:33N 35°60' W 125°07'18 9.0
2016-Sep-27 23:33N 35°47' W 125°22'36 9.0
2016-Sep-27 19:33N 35°22' W 125°54'  

Dump ship's entire track history